Time;durP1;ratioP1;P1;durP2;ratioP2;P2;SDS_P1;SDS_P2;PMS_P1;PMS_P2;Temp;Humidity;BMP_temperature;BMP_pressure;BME280_temperature;BME280_humidity;BME280_pressure;Samples;Min_cycle;Max_cycle;Signal;HPM_P1;HPM_P2
2022/07/01 00:00:20;;;;;;;;;;;12.40;97.30;;;;;;5038018;28;19921;-73
2022/07/01 00:02:48;;;;;;;;;;;12.30;97.40;;;;;;5039152;28;19928;-73
2022/07/01 00:05:15;;;;;;;;;;;12.30;97.50;;;;;;5038996;28;19925;-73
2022/07/01 00:07:46;;;;;;;;;;;12.30;97.70;;;;;;5037826;28;19946;-72
2022/07/01 00:10:13;;;;;;;;;;;12.30;98.00;;;;;;5038947;28;19925;-72
2022/07/01 00:12:41;;;;;;;;;;;12.20;97.70;;;;;;5038731;28;20355;-72
2022/07/01 00:15:09;;;;;;;;;;;12.20;97.70;;;;;;5032984;28;19921;-72
2022/07/01 00:17:37;;;;;;;;;;;12.20;97.80;;;;;;5001853;28;19928;-74
2022/07/01 00:20:04;;;;;;;;;;;12.20;98.20;;;;;;5017743;28;19925;-74
2022/07/01 00:22:32;;;;;;;;;;;12.30;98.30;;;;;;5018766;28;19921;-73
2022/07/01 00:24:59;;;;;;;;;;;12.20;98.30;;;;;;5001867;28;19921;-74
2022/07/01 00:27:27;;;;;;;;;;;12.10;98.40;;;;;;5017588;28;19921;-73
2022/07/01 00:29:54;;;;;;;;;;;12.10;98.40;;;;;;5018793;28;19926;-73
2022/07/01 00:32:22;;;;;;;;;;;12.10;98.80;;;;;;5018612;28;19929;-74
2022/07/01 00:34:49;;;;;;;;;;;12.10;98.70;;;;;;5017536;28;19936;-73
2022/07/01 00:37:17;;;;;;;;;;;12.10;99.00;;;;;;5018657;28;19928;-73
2022/07/01 00:39:44;;;;;;;;;;;12.10;99.20;;;;;;5017346;28;20356;-73
2022/07/01 00:42:12;;;;;;;;;;;12.10;99.70;;;;;;5001409;28;19921;-73
2022/07/01 00:44:39;;;;;;;;;;;12.10;99.20;;;;;;5018360;28;19921;-74
2022/07/01 00:47:09;;;;;;;;;;;12.00;99.20;;;;;;5017204;28;19947;-73
2022/07/01 00:49:38;;;;;;;;;;;12.00;99.40;;;;;;5018265;28;20356;-73
2022/07/01 00:52:07;;;;;;;;;;;12.00;99.70;;;;;;5001462;28;19940;-73
2022/07/01 00:54:35;;;;;;;;;;;12.00;99.90;;;;;;5017321;28;19925;-73
2022/07/01 00:57:06;;;;;;;;;;;12.10;99.90;;;;;;5018364;28;19921;-73
2022/07/01 00:59:35;;;;;;;;;;;12.00;99.90;;;;;;5019072;28;19929;-72
2022/07/01 01:02:04;;;;;;;;;;;12.20;99.90;;;;;;5017000;28;19922;-72
2022/07/01 01:04:32;;;;;;;;;;;12.10;99.90;;;;;;5018028;28;19922;-73
2022/07/01 01:07:02;;;;;;;;;;;12.10;99.90;;;;;;5016768;28;19921;-74
2022/07/01 01:09:30;;;;;;;;;;;12.20;99.90;;;;;;5017843;28;19921;-72
2022/07/01 01:11:57;;;;;;;;;;;12.20;99.90;;;;;;5001034;28;19930;-73
2022/07/01 01:14:25;;;;;;;;;;;12.20;99.90;;;;;;5016828;28;19921;-74
2022/07/01 01:16:52;;;;;;;;;;;12.20;99.90;;;;;;5017642;28;19921;-74
2022/07/01 01:19:21;;;;;;;;;;;12.20;99.90;;;;;;5017772;28;19921;-73
2022/07/01 01:21:49;;;;;;;;;;;12.20;99.90;;;;;;5016680;28;19921;-73
2022/07/01 01:24:16;;;;;;;;;;;12.20;99.90;;;;;;5000872;28;19921;-73
2022/07/01 01:26:44;;;;;;;;;;;12.20;99.90;;;;;;4999391;28;19921;-73
2022/07/01 01:29:11;;;;;;;;;;;12.20;99.90;;;;;;5017556;28;19936;-73
2022/07/01 01:31:39;;;;;;;;;;;12.20;99.90;;;;;;5017569;28;19921;-72
2022/07/01 01:34:07;;;;;;;;;;;12.20;99.90;;;;;;5016684;28;19928;-74
2022/07/01 01:36:34;;;;;;;;;;;12.20;99.90;;;;;;5000183;28;20410;-73
2022/07/01 01:39:05;;;;;;;;;;;12.10;99.90;;;;;;5017546;28;19933;-73
2022/07/01 01:41:32;;;;;;;;;;;12.10;99.90;;;;;;5016251;28;19929;-73
2022/07/01 01:44:00;;;;;;;;;;;12.10;99.90;;;;;;5017299;28;19929;-73
2022/07/01 01:46:29;;;;;;;;;;;12.10;99.90;;;;;;5016403;28;19932;-74
2022/07/01 01:48:56;;;;;;;;;;;12.20;99.90;;;;;;5017364;28;20375;-73
2022/07/01 01:51:24;;;;;;;;;;;12.20;99.90;;;;;;5017254;28;19925;-73
2022/07/01 01:53:51;;;;;;;;;;;12.20;99.90;;;;;;4999047;28;19921;-73
2022/07/01 01:56:19;;;;;;;;;;;12.20;99.90;;;;;;5017607;28;19921;-73
2022/07/01 01:58:46;;;;;;;;;;;12.20;99.90;;;;;;5017286;28;19921;-73
2022/07/01 02:01:14;;;;;;;;;;;12.20;99.90;;;;;;5015847;28;19928;-73
2022/07/01 02:03:41;;;;;;;;;;;12.30;99.90;;;;;;5017153;28;19921;-73
2022/07/01 02:06:10;;;;;;;;;;;12.20;99.90;;;;;;5017341;28;19922;-73
2022/07/01 02:08:37;;;;;;;;;;;12.30;99.90;;;;;;5015747;28;20347;-73
2022/07/01 02:11:05;;;;;;;;;;;12.30;99.90;;;;;;5016644;28;19932;-73
2022/07/01 02:13:33;;;;;;;;;;;12.20;99.90;;;;;;5015897;28;19921;-73
2022/07/01 02:16:00;;;;;;;;;;;12.20;99.90;;;;;;5019428;28;19921;-73
2022/07/01 02:18:28;;;;;;;;;;;12.20;99.90;;;;;;5035787;28;19921;-73
2022/07/01 02:20:55;;;;;;;;;;;12.20;99.90;;;;;;5035725;28;19928;-73
2022/07/01 02:23:22;;;;;;;;;;;12.20;99.90;;;;;;5036640;28;19921;-73
2022/07/01 02:25:50;;;;;;;;;;;12.20;99.90;;;;;;5036407;28;19921;-72
2022/07/01 02:28:17;;;;;;;;;;;12.20;99.90;;;;;;5034315;28;19947;-73
2022/07/01 02:30:45;;;;;;;;;;;12.20;99.90;;;;;;5036047;28;19932;-73
2022/07/01 02:33:12;;;;;;;;;;;12.20;99.90;;;;;;5035032;28;19921;-72
2022/07/01 02:35:40;;;;;;;;;;;12.20;99.90;;;;;;5036150;28;19921;-73
2022/07/01 02:38:12;;;;;;;;;;;12.20;99.90;;;;;;5036440;28;19928;-72
2022/07/01 02:40:40;;;;;;;;;;;12.20;99.90;;;;;;5034136;28;19920;-73
2022/07/01 02:43:07;;;;;;;;;;;12.10;99.90;;;;;;5036097;28;20455;-73
2022/07/01 02:45:34;;;;;;;;;;;12.10;99.90;;;;;;5035789;28;19925;-72
2022/07/01 02:48:02;;;;;;;;;;;11.20;99.90;;;;;;5034202;28;19928;-73
2022/07/01 02:50:29;;;;;;;;;;;12.00;99.90;;;;;;5035988;28;19921;-73
2022/07/01 02:52:57;;;;;;;;;;;11.90;99.90;;;;;;5035968;28;19928;-73
2022/07/01 02:55:25;;;;;;;;;;;11.90;99.90;;;;;;5034850;28;19924;-73
2022/07/01 02:57:52;;;;;;;;;;;11.80;99.90;;;;;;5035821;28;19928;-72
2022/07/01 03:00:20;;;;;;;;;;;11.80;99.90;;;;;;5033720;28;19928;-73
2022/07/01 03:02:47;;;;;;;;;;;11.90;99.90;;;;;;5035899;28;19928;-73
2022/07/01 03:05:15;;;;;;;;;;;11.90;99.90;;;;;;5034709;28;19932;-73
2022/07/01 03:07:43;;;;;;;;;;;11.90;99.90;;;;;;5034564;28;20279;-73
2022/07/01 03:10:10;;;;;;;;;;;11.90;99.90;;;;;;5034831;28;19921;-72
2022/07/01 03:12:39;;;;;;;;;;;11.90;99.90;;;;;;5035584;28;19920;-73
2022/07/01 03:15:06;;;;;;;;;;;12.00;99.90;;;;;;5029971;28;19921;-74
2022/07/01 03:17:34;;;;;;;;;;;12.00;99.90;;;;;;5016160;28;19928;-73
2022/07/01 03:20:08;;;;;;;;;;;12.00;99.90;;;;;;5014904;28;19932;-73
2022/07/01 03:22:36;;;;;;;;;;;12.00;99.90;;;;;;5015816;28;19921;-72
2022/07/01 03:25:04;;;;;;;;;;;12.00;99.90;;;;;;5015751;28;19925;-73
2022/07/01 03:27:32;;;;;;;;;;;12.00;99.90;;;;;;5014858;28;20267;-73
2022/07/01 03:30:00;;;;;;;;;;;12.00;99.90;;;;;;5014770;28;19921;-73
2022/07/01 03:32:27;;;;;;;;;;;12.00;99.90;;;;;;5015771;28;19921;-73
2022/07/01 03:34:55;;;;;;;;;;;12.00;99.90;;;;;;5014892;28;19926;-73
2022/07/01 03:37:23;;;;;;;;;;;11.90;99.90;;;;;;5016401;28;19928;-72
2022/07/01 03:39:50;;;;;;;;;;;11.90;99.90;;;;;;5014217;28;19921;-73
2022/07/01 03:42:18;;;;;;;;;;;12.00;99.90;;;;;;5015326;28;19928;-73
2022/07/01 03:44:46;;;;;;;;;;;11.90;99.90;;;;;;5015630;28;19925;-73
2022/07/01 03:47:13;;;;;;;;;;;11.80;99.90;;;;;;5014199;28;19928;-72
2022/07/01 03:49:41;;;;;;;;;;;11.90;99.90;;;;;;5015263;28;19921;-72
2022/07/01 03:52:08;;;;;;;;;;;11.90;99.90;;;;;;5015361;28;19928;-73
2022/07/01 03:54:39;;;;;;;;;;;11.80;99.90;;;;;;5014319;28;19932;-72
2022/07/01 03:57:08;;;;;;;;;;;11.80;99.90;;;;;;5015606;28;19921;-73
2022/07/01 03:59:36;;;;;;;;;;;11.80;99.90;;;;;;5015744;28;19921;-72
2022/07/01 04:02:05;;;;;;;;;;;11.80;99.90;;;;;;4996810;28;20287;-72
2022/07/01 04:04:33;;;;;;;;;;;11.80;99.90;;;;;;5015385;28;19921;-73
2022/07/01 04:07:04;;;;;;;;;;;11.80;99.90;;;;;;5014033;28;20352;-73
2022/07/01 04:09:31;;;;;;;;;;;11.80;99.90;;;;;;5015588;28;19921;-72
2022/07/01 04:11:58;;;;;;;;;;;11.80;99.90;;;;;;5015090;28;19925;-72
2022/07/01 04:14:26;;;;;;;;;;;11.90;99.90;;;;;;5013964;28;19926;-73
2022/07/01 04:16:53;;;;;;;;;;;12.00;99.90;;;;;;5015077;28;19928;-73
2022/07/01 04:19:21;;;;;;;;;;;12.00;99.90;;;;;;5015173;28;19936;-72
2022/07/01 04:24:34;;;;;;;;;;;12.20;99.90;;;;;;5015090;28;19940;-72
2022/07/01 04:27:02;;;;;;;;;;;12.30;99.90;;;;;;5014099;28;19922;-72
2022/07/01 04:29:30;;;;;;;;;;;12.30;99.90;;;;;;5015123;28;19928;-73
2022/07/01 04:31:58;;;;;;;;;;;12.40;99.90;;;;;;5014774;28;19928;-72
2022/07/01 04:34:26;;;;;;;;;;;12.40;99.90;;;;;;5014086;28;19937;-72
2022/07/01 04:36:53;;;;;;;;;;;12.50;99.90;;;;;;5015241;28;19921;-72
2022/07/01 04:39:20;;;;;;;;;;;12.50;99.90;;;;;;4997594;28;19921;-73
2022/07/01 04:42:00;;;;;;;;;;;12.60;99.90;;;;;;4999752;28;19928;-72
2022/07/01 04:44:27;;;;;;;;;;;12.60;99.90;;;;;;5001764;28;19936;-72
2022/07/01 04:46:55;;;;;;;;;;;12.70;99.90;;;;;;5017405;28;20281;-72
2022/07/01 04:49:22;;;;;;;;;;;12.70;99.90;;;;;;5018325;28;19921;-72
2022/07/01 04:51:50;;;;;;;;;;;12.80;99.90;;;;;;5018424;28;19929;-72
2022/07/01 04:54:18;;;;;;;;;;;12.80;99.90;;;;;;5017286;28;19936;-73
2022/07/01 04:56:45;;;;;;;;;;;12.80;99.90;;;;;;4985109;28;19936;-72
2022/07/01 04:59:13;;;;;;;;;;;12.90;99.90;;;;;;5018144;28;20239;-73
2022/07/01 05:01:41;;;;;;;;;;;12.90;99.90;;;;;;5016973;28;19928;-72
2022/07/01 05:04:09;;;;;;;;;;;13.10;99.90;;;;;;5018291;28;19921;-73
2022/07/01 05:06:37;;;;;;;;;;;13.20;99.90;;;;;;4983828;28;19921;-73
2022/07/01 05:09:04;;;;;;;;;;;13.30;99.90;;;;;;5017931;28;19921;-72
2022/07/01 05:11:32;;;;;;;;;;;13.30;99.90;;;;;;5017879;28;19932;-73
2022/07/01 05:13:59;;;;;;;;;;;13.30;99.90;;;;;;5017264;28;19921;-72
2022/07/01 05:16:27;;;;;;;;;;;13.40;99.90;;;;;;5027719;28;19921;-73
2022/07/01 05:21:55;;;;;;;;;;;13.50;99.90;;;;;;5036371;28;19928;-73
2022/07/01 05:24:28;;;;;;;;;;;13.50;99.90;;;;;;5037114;28;20343;-72
2022/07/01 05:26:55;;;;;;;;;;;13.60;99.90;;;;;;5036814;28;19921;-73
2022/07/01 05:29:23;;;;;;;;;;;13.60;99.90;;;;;;5037484;28;19921;-72
2022/07/01 05:31:50;;;;;;;;;;;13.70;99.90;;;;;;5036567;28;19934;-73
2022/07/01 05:34:18;;;;;;;;;;;13.80;99.90;;;;;;5036154;28;19932;-72
2022/07/01 05:36:45;;;;;;;;;;;13.80;99.90;;;;;;5037247;28;19928;-73
2022/07/01 05:39:13;;;;;;;;;;;13.90;99.90;;;;;;5037510;28;19921;-73
2022/07/01 05:41:40;;;;;;;;;;;13.90;99.90;;;;;;5036080;28;19928;-73
2022/07/01 05:44:07;;;;;;;;;;;14.00;99.90;;;;;;5037478;28;19928;-73
2022/07/01 05:46:36;;;;;;;;;;;14.10;99.90;;;;;;5036015;28;19921;-72
2022/07/01 05:49:03;;;;;;;;;;;14.20;99.90;;;;;;5036356;28;19925;-73
2022/07/01 05:51:31;;;;;;;;;;;14.20;99.90;;;;;;5036817;28;19928;-73
2022/07/01 05:53:58;;;;;;;;;;;14.40;99.90;;;;;;5035646;28;19932;-73
2022/07/01 05:56:26;;;;;;;;;;;14.50;99.90;;;;;;5037029;28;19931;-73
2022/07/01 05:58:54;;;;;;;;;;;14.50;99.90;;;;;;5019698;28;19944;-72
2022/07/01 06:01:21;;;;;;;;;;;14.60;99.90;;;;;;5034728;28;19920;-72
2022/07/01 06:03:48;;;;;;;;;;;14.60;99.90;;;;;;5036354;28;19921;-73
2022/07/01 06:06:19;;;;;;;;;;;14.60;99.90;;;;;;5035831;28;19925;-72
2022/07/01 06:08:46;;;;;;;;;;;14.70;99.90;;;;;;5035762;28;19993;-73
2022/07/01 06:11:14;;;;;;;;;;;14.60;99.80;;;;;;5036554;28;19991;-73
2022/07/01 06:13:42;;;;;;;;;;;14.60;99.70;;;;;;5035451;28;19928;-72
2022/07/01 06:16:09;;;;;;;;;;;14.50;99.70;;;;;;5019118;28;20359;-72
2022/07/01 06:18:37;;;;;;;;;;;14.40;99.90;;;;;;5035566;28;19924;-73
2022/07/01 06:21:04;;;;;;;;;;;14.30;99.90;;;;;;5035310;28;19925;-73
2022/07/01 06:23:32;;;;;;;;;;;14.20;99.90;;;;;;5036532;28;19921;-73
2022/07/01 06:25:59;;;;;;;;;;;14.10;99.90;;;;;;5035316;28;19940;-72
2022/07/01 06:28:29;;;;;;;;;;;14.10;99.90;;;;;;5034162;28;20424;-73
2022/07/01 06:30:57;;;;;;;;;;;14.00;99.90;;;;;;5035782;28;19925;-72
2022/07/01 06:33:27;;;;;;;;;;;14.00;99.90;;;;;;5035469;28;19921;-72
2022/07/01 06:35:54;;;;;;;;;;;14.00;99.90;;;;;;5036298;28;19928;-73
2022/07/01 06:38:21;;;;;;;;;;;14.00;99.90;;;;;;5035556;28;19921;-72
2022/07/01 06:43:35;;;;;;;;;;;14.70;99.90;;;;;;5035658;28;19929;-72
2022/07/01 06:46:04;;;;;;;;;;;14.00;99.90;;;;;;5036188;28;19921;-73
2022/07/01 06:48:31;;;;;;;;;;;14.00;99.90;;;;;;5034774;28;19928;-72
2022/07/01 06:50:59;;;;;;;;;;;14.00;99.90;;;;;;5035918;28;19921;-72
2022/07/01 06:53:26;;;;;;;;;;;14.10;99.90;;;;;;5033804;28;19921;-72
2022/07/01 06:55:54;;;;;;;;;;;14.10;99.90;;;;;;5036221;28;19940;-72
2022/07/01 06:58:21;;;;;;;;;;;14.20;99.90;;;;;;5035930;28;19921;-73
2022/07/01 07:00:48;;;;;;;;;;;14.20;99.90;;;;;;5033719;28;19928;-73
2022/07/01 07:03:16;;;;;;;;;;;14.20;99.90;;;;;;5035692;28;19921;-73
2022/07/01 07:05:43;;;;;;;;;;;14.30;99.90;;;;;;5035541;28;20378;-73
2022/07/01 07:08:11;;;;;;;;;;;14.30;99.90;;;;;;5034437;28;19921;-72
2022/07/01 07:10:38;;;;;;;;;;;14.30;99.90;;;;;;5035567;28;19944;-72
2022/07/01 07:13:05;;;;;;;;;;;14.40;99.90;;;;;;5033892;28;19921;-72
2022/07/01 07:15:33;;;;;;;;;;;14.50;99.90;;;;;;5027163;28;19928;-72
2022/07/01 07:18:00;;;;;;;;;;;14.60;99.90;;;;;;5015457;28;19940;-71
2022/07/01 07:20:28;;;;;;;;;;;14.70;99.90;;;;;;5014259;28;19925;-72
2022/07/01 07:22:55;;;;;;;;;;;14.80;99.90;;;;;;5015686;28;19922;-71
2022/07/01 07:25:23;;;;;;;;;;;14.80;99.90;;;;;;5015396;28;19929;-72
2022/07/01 07:27:50;;;;;;;;;;;14.90;99.70;;;;;;5013973;28;19921;-72
2022/07/01 07:30:18;;;;;;;;;;;15.00;99.30;;;;;;5015229;28;19929;-71
2022/07/01 07:32:45;;;;;;;;;;;15.00;98.60;;;;;;4998144;28;19929;-72
2022/07/01 07:35:13;;;;;;;;;;;15.10;98.20;;;;;;5014036;28;19940;-72
2022/07/01 07:37:40;;;;;;;;;;;15.10;98.40;;;;;;5015165;28;19997;-71
2022/07/01 07:40:12;;;;;;;;;;;15.20;98.50;;;;;;5014152;28;20283;-72
2022/07/01 07:42:39;;;;;;;;;;;15.30;98.20;;;;;;4997785;28;19921;-72
2022/07/01 07:45:07;;;;;;;;;;;15.90;98.10;;;;;;5015205;28;19921;-72
2022/07/01 07:47:35;;;;;;;;;;;15.40;97.20;;;;;;5013974;28;19928;-72
2022/07/01 07:50:02;;;;;;;;;;;15.50;97.10;;;;;;5018587;28;19921;-72
2022/07/01 07:52:30;;;;;;;;;;;15.50;96.80;;;;;;5021817;28;19933;-73
2022/07/01 07:54:58;;;;;;;;;;;15.60;96.60;;;;;;5014500;28;19925;-74
2022/07/01 07:57:25;;;;;;;;;;;15.60;96.30;;;;;;5029120;28;19925;-72
2022/07/01 07:59:53;;;;;;;;;;;15.80;96.30;;;;;;5034594;28;19928;-73
2022/07/01 08:02:20;;;;;;;;;;;15.90;95.30;;;;;;5035505;28;19925;-72
2022/07/01 08:04:51;;;;;;;;;;;16.10;95.40;;;;;;5035423;28;19928;-73
2022/07/01 08:07:18;;;;;;;;;;;16.20;95.00;;;;;;5016884;28;20275;-73
2022/07/01 08:09:48;;;;;;;;;;;16.50;94.40;;;;;;5019462;28;19928;-72
2022/07/01 08:12:16;;;;;;;;;;;16.80;94.10;;;;;;5015654;28;19932;-73
2022/07/01 08:14:44;;;;;;;;;;;17.10;93.10;;;;;;5014146;28;19944;-73
2022/07/01 08:17:11;;;;;;;;;;;17.40;92.30;;;;;;5019074;28;19928;-71
2022/07/01 08:19:39;;;;;;;;;;;17.60;92.30;;;;;;5018565;28;20261;-71
2022/07/01 08:22:06;;;;;;;;;;;17.70;92.30;;;;;;5018176;28;19922;-71
2022/07/01 08:24:34;;;;;;;;;;;17.80;92.30;;;;;;5019643;28;20260;-71
2022/07/01 08:27:02;;;;;;;;;;;17.90;91.90;;;;;;5017872;28;19928;-70
2022/07/01 08:29:29;;;;;;;;;;;17.90;91.60;;;;;;5018777;28;19928;-71
2022/07/01 08:31:56;;;;;;;;;;;17.90;91.80;;;;;;5019070;28;19929;-71
2022/07/01 08:34:24;;;;;;;;;;;17.90;91.60;;;;;;5017721;28;19921;-71
2022/07/01 08:36:51;;;;;;;;;;;17.90;91.00;;;;;;4985510;28;19921;-71
2022/07/01 08:39:20;;;;;;;;;;;17.80;91.30;;;;;;5001504;28;19925;-71
2022/07/01 08:41:48;;;;;;;;;;;17.70;91.40;;;;;;5017659;28;20348;-71
2022/07/01 08:44:15;;;;;;;;;;;17.60;91.40;;;;;;5018961;28;19928;-71
2022/07/01 08:46:49;;;;;;;;;;;17.70;90.90;;;;;;5000682;28;19922;-71
2022/07/01 08:49:17;;;;;;;;;;;17.60;90.90;;;;;;5018146;28;19921;-71
2022/07/01 08:51:44;;;;;;;;;;;17.60;91.10;;;;;;5018453;28;19929;-71
2022/07/01 08:54:11;;;;;;;;;;;17.80;91.10;;;;;;5017130;28;19921;-71
2022/07/01 08:56:42;;;;;;;;;;;17.90;90.60;;;;;;5018461;28;19921;-71
2022/07/01 08:59:10;;;;;;;;;;;17.90;90.10;;;;;;5001484;28;19921;-71
2022/07/01 09:01:38;;;;;;;;;;;17.80;89.60;;;;;;4999779;28;19921;-71
2022/07/01 09:04:14;;;;;;;;;;;17.90;90.10;;;;;;5017916;28;19921;-71
2022/07/01 09:06:42;;;;;;;;;;;17.80;90.30;;;;;;4999899;28;19925;-71
2022/07/01 09:09:13;;;;;;;;;;;17.80;90.10;;;;;;5017978;28;19944;-72
2022/07/01 09:11:45;;;;;;;;;;;17.90;90.10;;;;;;5018289;28;19933;-71
2022/07/01 09:14:14;;;;;;;;;;;18.00;89.70;;;;;;5000080;28;19932;-71
2022/07/01 09:16:42;;;;;;;;;;;18.20;89.90;;;;;;5018420;28;19922;-71
2022/07/01 09:19:10;;;;;;;;;;;18.40;86.90;;;;;;5018558;28;19921;-71
2022/07/01 09:21:38;;;;;;;;;;;18.50;87.30;;;;;;5017409;28;19922;-71
2022/07/01 09:24:25;;;;;;;;;;;18.60;87.10;;;;;;5001060;28;19921;-71
2022/07/01 09:26:52;;;;;;;;;;;18.70;86.10;;;;;;5015904;28;19921;-71
2022/07/01 09:29:20;;;;;;;;;;;18.60;85.10;;;;;;5017640;28;19922;-71
2022/07/01 09:31:48;;;;;;;;;;;18.40;86.30;;;;;;5000864;28;20044;-71
2022/07/01 09:34:15;;;;;;;;;;;18.30;87.40;;;;;;5017168;28;19928;-71
2022/07/01 09:36:51;;;;;;;;;;;18.20;87.70;;;;;;5017713;28;20248;-71
2022/07/01 09:39:18;;;;;;;;;;;18.20;86.90;;;;;;5017591;28;19932;-71
2022/07/01 09:42:04;;;;;;;;;;;18.30;86.00;;;;;;5017166;28;20344;-71
2022/07/01 09:44:31;;;;;;;;;;;18.50;85.00;;;;;;5017637;28;19921;-71
2022/07/01 09:47:01;;;;;;;;;;;18.60;85.00;;;;;;5016675;28;19932;-72
2022/07/01 09:49:29;;;;;;;;;;;18.80;84.90;;;;;;5017648;28;20248;-71
2022/07/01 09:51:56;;;;;;;;;;;19.10;85.10;;;;;;5017442;28;19928;-71
2022/07/01 09:54:23;;;;;;;;;;;19.50;84.10;;;;;;5016345;28;19929;-71
2022/07/01 09:56:51;;;;;;;;;;;19.70;82.70;;;;;;5000710;28;19921;-71
2022/07/01 09:59:18;;;;;;;;;;;19.90;81.80;;;;;;5017029;28;19921;-71
2022/07/01 10:01:45;;;;;;;;;;;20.10;81.60;;;;;;5016233;28;19921;-71
2022/07/01 10:04:15;;;;;;;;;;;20.10;79.60;;;;;;5016710;28;20333;-71
2022/07/01 10:06:48;;;;;;;;;;;20.60;81.10;;;;;;5016354;28;19925;-71
2022/07/01 10:09:25;;;;;;;;;;;20.10;81.20;;;;;;5017327;28;19955;-71
2022/07/01 10:12:21;;;;;;;;;;;20.00;80.10;;;;;;5017210;28;19928;-71
2022/07/01 10:14:48;;;;;;;;;;;20.00;80.40;;;;;;5016217;28;19959;-71
2022/07/01 10:17:34;;;;;;;;;;;20.00;78.90;;;;;;5017098;28;19922;-71
2022/07/01 10:20:12;;;;;;;;;;;20.00;80.20;;;;;;5016270;28;19932;-71
2022/07/01 10:22:40;;;;;;;;;;;20.10;80.40;;;;;;5017045;28;20268;-71
2022/07/01 10:25:26;;;;;;;;;;;20.20;79.90;;;;;;5017052;28;19928;-71
2022/07/01 10:28:12;;;;;;;;;;;20.20;79.50;;;;;;4997878;28;19928;-71
2022/07/01 10:30:49;;;;;;;;;;;20.00;79.20;;;;;;5016384;28;19929;-71
2022/07/01 10:33:26;;;;;;;;;;;19.90;79.50;;;;;;5015519;28;19922;-71
2022/07/01 10:35:54;;;;;;;;;;;19.90;79.40;;;;;;5016277;28;19921;-71
2022/07/01 10:38:21;;;;;;;;;;;19.90;80.60;;;;;;5014724;28;20359;-71
2022/07/01 10:40:49;;;;;;;;;;;20.00;79.50;;;;;;5015341;28;19922;-71
2022/07/01 10:43:31;;;;;;;;;;;20.00;79.40;;;;;;5016028;28;19927;-71
2022/07/01 10:45:59;;;;;;;;;;;20.10;79.50;;;;;;5016131;28;19925;-71
2022/07/01 10:48:30;;;;;;;;;;;20.20;78.60;;;;;;5015179;28;20027;-71
2022/07/01 10:50:57;;;;;;;;;;;20.30;78.00;;;;;;5015992;28;19940;-71
2022/07/01 10:53:30;;;;;;;;;;;20.20;77.90;;;;;;4998136;28;19921;-71
2022/07/01 10:55:59;;;;;;;;;;;20.10;78.20;;;;;;5015760;28;19921;-71
2022/07/01 10:58:36;;;;;;;;;;;20.00;78.90;;;;;;5015744;28;20272;-71
2022/07/01 11:01:04;;;;;;;;;;;20.10;78.60;;;;;;4997690;28;19929;-71
2022/07/01 11:03:34;;;;;;;;;;;20.30;78.80;;;;;;5015762;28;19925;-72
2022/07/01 11:06:02;;;;;;;;;;;20.50;78.40;;;;;;5015060;28;19921;-71
2022/07/01 11:08:29;;;;;;;;;;;20.70;78.90;;;;;;5015160;28;19940;-71
2022/07/01 11:11:01;;;;;;;;;;;20.90;76.90;;;;;;5015343;28;19929;-71
2022/07/01 11:13:28;;;;;;;;;;;20.90;77.00;;;;;;5015081;28;19921;-71
2022/07/01 11:15:56;;;;;;;;;;;21.10;77.20;;;;;;5015401;28;19939;-72
2022/07/01 11:18:24;;;;;;;;;;;21.30;76.30;;;;;;4998808;28;19928;-71
2022/07/01 11:20:52;;;;;;;;;;;21.30;77.10;;;;;;5014900;28;19922;-71
2022/07/01 11:23:21;;;;;;;;;;;21.40;73.50;;;;;;5015732;28;19960;-71
2022/07/01 11:25:48;;;;;;;;;;;21.40;72.60;;;;;;5015277;28;19921;-72
2022/07/01 11:28:16;;;;;;;;;;;21.30;72.10;;;;;;4997598;28;19922;-72
2022/07/01 11:30:43;;;;;;;;;;;21.30;71.80;;;;;;5015539;28;19957;-72
2022/07/01 11:33:11;;;;;;;;;;;21.30;73.10;;;;;;5014107;28;19922;-71
2022/07/01 11:41:21;;;;;;;;;;;21.20;73.00;;;;;;5014494;28;19928;-71
2022/07/01 11:43:51;;;;;;;;;;;21.20;72.80;;;;;;5015846;28;19929;-71
2022/07/01 11:46:18;;;;;;;;;;;21.30;70.80;;;;;;5015049;28;19932;-72
2022/07/01 11:48:50;;;;;;;;;;;21.40;71.80;;;;;;5014137;28;20355;-71
2022/07/01 11:51:22;;;;;;;;;;;21.60;71.50;;;;;;5014592;28;19921;-72
2022/07/01 11:53:51;;;;;;;;;;;21.80;70.30;;;;;;5014301;28;19921;-71
2022/07/01 11:56:41;;;;;;;;;;;21.90;68.90;;;;;;5015234;28;19921;-71
2022/07/01 11:59:08;;;;;;;;;;;21.90;68.90;;;;;;5015206;28;20253;-71
2022/07/01 12:01:40;;;;;;;;;;;21.90;69.00;;;;;;5013514;28;19922;-72
2022/07/01 12:04:08;;;;;;;;;;;22.00;67.70;;;;;;5015099;28;19922;-71
2022/07/01 12:06:41;;;;;;;;;;;21.90;67.70;;;;;;5013897;28;19921;-71
2022/07/01 12:09:27;;;;;;;;;;;21.80;69.20;;;;;;5015231;28;19921;-72
2022/07/01 12:11:55;;;;;;;;;;;21.60;70.60;;;;;;5014924;28;19921;-71
2022/07/01 12:14:23;;;;;;;;;;;21.40;70.70;;;;;;5014052;28;19925;-71
2022/07/01 12:16:52;;;;;;;;;;;21.30;70.90;;;;;;5047667;28;19924;-71
2022/07/01 12:19:26;;;;;;;;;;;21.20;71.90;;;;;;5034579;28;19944;-71
2022/07/01 12:21:54;;;;;;;;;;;21.10;72.10;;;;;;5033477;28;19930;-71
2022/07/01 12:24:22;;;;;;;;;;;21.20;71.80;;;;;;5034561;28;19940;-71
2022/07/01 12:26:49;;;;;;;;;;;21.20;72.00;;;;;;5033553;28;19921;-71
2022/07/01 12:29:17;;;;;;;;;;;21.10;71.90;;;;;;5034688;28;20295;-71
2022/07/01 12:32:02;;;;;;;;;;;21.20;72.90;;;;;;5034695;28;19928;-71
2022/07/01 12:34:42;;;;;;;;;;;21.30;71.90;;;;;;5033260;28;19932;-71
2022/07/01 12:37:12;;;;;;;;;;;21.30;71.90;;;;;;5050353;28;19921;-72
2022/07/01 12:39:43;;;;;;;;;;;21.30;72.00;;;;;;5034629;28;20344;-71
2022/07/01 12:42:20;;;;;;;;;;;21.40;71.30;;;;;;5034849;28;20359;-71
2022/07/01 12:44:48;;;;;;;;;;;21.40;69.70;;;;;;5034334;28;19921;-72
2022/07/01 12:47:19;;;;;;;;;;;21.40;70.10;;;;;;5033397;28;19928;-72
2022/07/01 12:49:46;;;;;;;;;;;21.40;70.70;;;;;;5036957;28;19929;-72
2022/07/01 12:52:26;;;;;;;;;;;21.40;71.00;;;;;;5043822;28;19932;-71
2022/07/01 12:54:57;;;;;;;;;;;21.40;70.30;;;;;;5049406;28;19920;-72
2022/07/01 12:57:31;;;;;;;;;;;21.50;70.10;;;;;;5052791;28;19921;-72
2022/07/01 13:00:05;;;;;;;;;;;21.70;69.30;;;;;;5053154;28;20362;-72
2022/07/01 13:02:32;;;;;;;;;;;21.80;70.30;;;;;;5056937;28;20279;-72
2022/07/01 13:04:59;;;;;;;;;;;22.00;70.40;;;;;;5058291;28;19920;-72
2022/07/01 13:07:27;;;;;;;;;;;22.00;70.20;;;;;;5056965;28;19943;-72
2022/07/01 13:09:54;;;;;;;;;;;21.90;70.80;;;;;;5057681;28;19921;-71
2022/07/01 13:12:21;;;;;;;;;;;21.80;69.80;;;;;;5057259;28;19944;-71
2022/07/01 13:14:49;;;;;;;;;;;21.70;70.50;;;;;;5045808;28;19921;-71
2022/07/01 13:17:16;;;;;;;;;;;21.70;69.90;;;;;;5000805;28;19944;-72
2022/07/01 13:19:44;;;;;;;;;;;21.80;68.30;;;;;;5017173;28;19928;-72
2022/07/01 13:22:11;;;;;;;;;;;21.90;67.90;;;;;;5017748;28;19925;-72
2022/07/01 13:24:38;;;;;;;;;;;22.00;68.10;;;;;;5017862;28;19922;-72
2022/07/01 13:27:06;;;;;;;;;;;22.30;67.30;;;;;;5016035;28;19921;-72
2022/07/01 13:29:33;;;;;;;;;;;22.60;66.50;;;;;;5017661;28;19921;-71
2022/07/01 13:32:00;;;;;;;;;;;23.50;63.80;;;;;;5017742;28;19928;-72
2022/07/01 13:34:28;;;;;;;;;;;24.10;63.60;;;;;;5016580;28;19925;-70
2022/07/01 13:36:55;;;;;;;;;;;24.60;63.70;;;;;;5017573;28;19921;-72
2022/07/01 13:39:23;;;;;;;;;;;25.30;62.40;;;;;;5017317;28;19929;-72
2022/07/01 13:41:50;;;;;;;;;;;26.20;61.20;;;;;;5015685;28;19928;-72
2022/07/01 13:44:18;;;;;;;;;;;26.40;59.50;;;;;;5017786;28;19922;-70
2022/07/01 13:46:45;;;;;;;;;;;26.10;59.90;;;;;;4999161;28;19921;-72
2022/07/01 13:49:14;;;;;;;;;;;25.50;59.50;;;;;;5017225;28;19921;-72
2022/07/01 13:51:42;;;;;;;;;;;24.90;61.10;;;;;;5017221;28;20366;-72
2022/07/01 13:54:09;;;;;;;;;;;24.20;62.80;;;;;;5015991;28;20253;-72
2022/07/01 13:56:37;;;;;;;;;;;23.60;63.60;;;;;;5016608;28;19921;-72
2022/07/01 13:59:04;;;;;;;;;;;23.30;64.20;;;;;;5017003;28;19936;-71
2022/07/01 14:01:33;;;;;;;;;;;23.10;64.50;;;;;;5015824;28;19925;-72
2022/07/01 14:04:00;;;;;;;;;;;23.30;64.50;;;;;;5017106;28;19921;-72
2022/07/01 14:06:28;;;;;;;;;;;24.40;65.00;;;;;;5016066;28;20364;-72
2022/07/01 14:08:55;;;;;;;;;;;25.00;62.20;;;;;;5016797;28;19928;-71
2022/07/01 14:11:23;;;;;;;;;;;25.10;61.10;;;;;;5016355;28;19921;-71
2022/07/01 14:13:50;;;;;;;;;;;24.80;61.40;;;;;;5015263;28;19921;-71
2022/07/01 14:16:17;;;;;;;;;;;24.40;61.90;;;;;;5016505;28;19928;-73
2022/07/01 14:18:46;;;;;;;;;;;23.90;63.30;;;;;;5016767;28;19921;-73
2022/07/01 14:21:13;;;;;;;;;;;23.40;64.10;;;;;;5015506;28;19928;-73
2022/07/01 14:23:40;;;;;;;;;;;23.00;64.90;;;;;;5016682;28;19921;-73
2022/07/01 14:26:08;;;;;;;;;;;22.70;65.60;;;;;;5016121;28;20011;-73
2022/07/01 14:28:35;;;;;;;;;;;22.60;65.60;;;;;;5009635;28;20347;-74
2022/07/01 14:31:02;;;;;;;;;;;22.60;65.70;;;;;;5036406;28;20236;-74
2022/07/01 14:33:30;;;;;;;;;;;22.60;66.30;;;;;;5035355;28;20283;-74
2022/07/01 14:35:57;;;;;;;;;;;22.50;66.20;;;;;;5018705;28;19928;-73
2022/07/01 14:38:25;;;;;;;;;;;22.40;66.00;;;;;;5036228;28;19920;-73